Latest Weather Observations for Strathalbyn

IDS60801

Issued at 7:31 pm CST Wednesday 28 September 2016 (issued every 30 minutes, with the page automatically refreshed every 10 minutes)

About weather observations | Map of weather stations | Latest weather observations for SA | Other Formats
Station Details ID: 024580 Name: STRATHALBYN RACECOURSE Lat: -35.28 Lon: 138.89 Height: 58.0 m
Data from the previous 72 hours. | See also: Recent months at Strathalbyn
Date/Time
CST
Temp
°C
App
Temp
°C
Dew
Point
°C
Rel
Hum
%
Delta-T
°C
Wind Press
QNH
hPa
Press
MSL
hPa
Rain since
9am
mm
Dir  Spd
km/h
Gust
km/h
Spd
kts
Gust
kts
28/07:30pm 11.7 5.6 8.2 79 1.7 WNW 30 41 16 22 990.3 - 24.4
28/07:00pm 11.8 7.2 8.3 79 1.7 W 22 33 12 18 989.6 - 24.4
28/06:31pm 12.1 5.3 9.1 82 1.5 W 35 54 19 29 989.4 - 24.4
28/06:30pm 12.2 5.0 9.2 82 1.5 W 37 54 20 29 989.5 - 24.4
28/06:15pm 13.4 7.4 10.2 81 1.7 WNW 32 50 17 27 989.4 - 24.2
28/06:00pm 13.3 9.6 11.5 89 1.0 W 22 35 12 19 989.4 989.4 24.0
28/05:30pm 12.7 11.4 11.3 91 0.7 W 9 13 5 7 988.2 - 23.0
28/05:00pm 12.4 10.6 10.8 90 0.8 N 11 13 6 7 988.2 - 18.6
28/04:30pm 12.4 9.4 10.5 88 1.0 N 17 26 9 14 989.2 - 14.6
28/04:00pm 12.8 8.7 10.0 83 1.4 NNE 22 32 12 17 988.7 - 11.8
28/03:30pm 12.9 8.0 10.1 83 1.4 NE 26 39 14 21 990.2 - 11.8
28/03:29pm 12.9 8.0 10.1 83 1.4 NE 26 39 14 21 990.2 - 11.8
28/03:00pm 12.4 8.3 10.1 86 1.2 NE 22 33 12 18 992.2 992.2 11.8
28/02:30pm 11.9 7.0 10.0 88 1.0 NE 26 37 14 20 993.3 - 11.8
28/02:00pm 11.1 6.1 9.5 90 0.8 NNE 26 35 14 19 994.9 - 11.8
28/01:30pm 11.1 6.8 9.2 88 1.0 NNE 22 32 12 17 996.8 - 9.2
28/01:00pm 11.2 6.8 8.9 86 1.1 NNE 22 30 12 16 998.7 - 6.6
28/12:30pm 11.6 5.6 8.5 81 1.5 N 30 46 16 25 999.9 - 2.4
28/12:00pm 14.9 7.7 6.0 55 4.3 N 33 54 18 29 999.8 999.9 0.0
28/11:52am 15.8 9.4 5.1 49 5.1 NNE 28 54 15 29 999.3 - 0.0
28/11:30am 15.9 8.9 5.8 51 4.9 NNE 32 44 17 24 998.7 - 0.0
28/11:13am 15.9 8.5 5.2 49 5.1 NNE 33 52 18 28 999.1 - 0.0
28/11:00am 16.0 8.0 5.6 50 5.0 NNE 37 48 20 26 999.3 - 0.0
28/10:30am 16.4 7.1 5.1 47 5.4 NNE 43 61 23 33 1000.6 - 0.0
28/10:00am 16.4 7.4 4.8 46 5.5 NNE 41 59 22 32 1001.8 - 0.0
28/09:35am 16.7 9.3 5.0 46 5.6 NNE 33 54 18 29 1002.7 - 0.0
28/09:30am 16.9 9.4 6.4 50 5.2 NNE 35 52 19 28 1002.8 - 0.0
28/09:03am 16.4 9.3 6.2 51 5.0 NNE 33 52 18 28 1003.8 - 0.0
28/09:00am 16.2 8.6 5.8 50 5.0 NNE 35 52 19 28 1004.0 1004.0 0.0
28/08:54am 16.0 8.6 5.0 48 5.2 NNE 33 52 18 28 1004.1 - 0.0
28/08:30am 15.4 8.4 5.9 53 4.6 NNE 32 44 17 24 1004.9 - 0.0
28/08:00am 14.1 9.5 6.5 60 3.7 NNE 20 32 11 17 1005.5 - 0.0
28/07:30am 12.6 9.3 6.6 67 2.9 NNE 13 19 7 10 1006.4 - 0.0
28/07:00am 10.1 7.4 7.3 83 1.3 N 11 13 6 7 1007.0 - 0.0
28/06:30am 6.3 3.0 4.3 87 0.9 N 11 13 6 7 1007.3 - 0.0
28/06:00am 5.0 1.1 3.2 88 0.7 N 13 15 7 8 1007.6 1007.6 0.0
28/05:30am 4.6 1.0 2.8 88 0.7 N 11 13 6 7 1007.9 - 0.0
28/05:00am 4.8 1.2 2.8 87 0.8 N 11 13 6 7 1008.2 - 0.0
28/04:30am 4.9 2.0 2.6 85 0.9 N 7 7 4 4 1008.5 - 0.0
28/04:00am 5.4 2.6 2.9 84 1.0 N 7 11 4 6 1008.8 - 0.0
28/03:30am 6.1 2.7 3.9 86 0.9 NNE 11 15 6 8 1009.1 - 0.0
28/03:00am 6.5 2.2 3.3 80 1.3 NNW 15 20 8 11 1009.6 1009.6 0.0
28/02:30am 6.7 2.5 3.9 82 1.2 NNW 15 17 8 9 1009.8 - 0.0
28/02:00am 6.9 2.7 3.7 80 1.4 NNW 15 20 8 11 1010.5 - 0.0
28/01:30am 6.4 2.6 3.9 84 1.1 NNW 13 15 7 8 1011.1 - 0.0
28/01:00am 6.5 2.4 4.2 85 1.0 NNW 15 19 8 10 1011.4 - 0.0
28/12:30am 6.5 2.0 4.0 84 1.1 NNW 17 19 9 10 1011.7 - 0.0
28/12:00am 6.7 2.6 4.4 85 1.0 NNW 15 17 8 9 1011.9 1011.9 0.0
 
Date/Time
CST
Temp
°C
App
Temp
°C
Dew
Point
°C
Rel
Hum
%
Delta-T
°C
Wind Press
QNH
hPa
Press
MSL
hPa
Rain since
9am
mm
Dir  Spd
km/h
Gust
km/h
Spd
kts
Gust
kts
27/11:30pm 6.4 3.0 4.1 85 1.0 NNW 11 13 6 7 1012.2 - 0.0
27/11:00pm 6.6 2.5 4.3 85 1.0 NW 15 17 8 9 1012.5 - 0.0
27/10:30pm 6.5 3.1 4.0 84 1.1 NNW 11 13 6 7 1012.9 - 0.0
27/10:00pm 6.5 2.4 4.3 86 0.9 NNW 15 17 8 9 1013.2 - 0.0
27/09:30pm 6.9 3.2 4.6 85 1.0 NNW 13 15 7 8 1013.3 - 0.0
27/09:00pm 7.4 4.2 5.0 85 1.1 N 11 15 6 8 1013.5 1013.5 0.0
27/08:30pm 8.3 5.2 5.4 82 1.3 NW 11 13 6 7 1013.5 - 0.0
27/08:00pm 8.2 4.7 5.5 83 1.2 NNW 13 13 7 7 1013.8 - 0.0
27/07:30pm 8.0 5.4 4.0 76 1.7 WNW 7 9 4 5 1013.6 - 0.0
27/07:00pm 10.8 7.6 5.3 69 2.5 W 11 11 6 6 1013.7 - 0.0
27/06:30pm 11.3 8.2 5.4 67 2.7 WNW 11 13 6 7 1013.7 - 0.0
27/06:00pm 12.5 9.1 5.9 64 3.1 WNW 13 15 7 8 1013.6 1013.6 0.0
27/05:30pm 14.4 10.7 6.5 59 3.8 NW 15 20 8 11 1013.6 - 0.0
27/05:00pm 14.3 10.7 6.6 60 3.7 NW 15 22 8 12 1013.4 - 0.0
27/04:30pm 14.7 11.4 6.5 58 4.0 WNW 13 17 7 9 1013.5 - 0.0
27/04:00pm 14.8 10.8 6.6 58 4.0 WNW 17 22 9 12 1013.6 - 0.0
27/03:30pm 14.7 10.4 6.8 59 3.9 NW 19 28 10 15 1013.7 - 0.0
27/03:00pm 14.6 10.2 6.7 59 3.8 WNW 19 28 10 15 1013.9 1013.9 0.0
27/02:30pm 14.6 10.3 7.2 61 3.6 WNW 19 26 10 14 1014.0 - 0.0
27/02:00pm 14.2 9.7 6.8 61 3.6 WNW 20 30 11 16 1014.3 - 0.0
27/01:30pm 14.3 9.3 6.4 59 3.8 WNW 22 30 12 16 1014.2 - 0.0
27/01:00pm 14.9 10.2 6.0 55 4.3 WNW 20 30 11 16 1014.4 - 0.0
27/12:30pm 15.0 10.4 5.5 53 4.5 WNW 19 28 10 15 1014.6 - 0.0
27/12:00pm 15.0 10.5 7.1 59 3.9 WNW 20 30 11 16 1014.9 1015.0 0.0
27/11:30am 14.4 9.7 5.2 54 4.3 W 19 30 10 16 1015.2 - 0.0
27/11:00am 15.3 10.6 6.1 54 4.4 NW 20 28 11 15 1015.1 - 0.0
27/10:30am 13.9 9.4 6.0 59 3.8 W 19 26 10 14 1015.5 - 0.0
27/10:00am 14.0 9.4 6.4 60 3.7 W 20 30 11 16 1015.7 - 0.0
27/09:30am 13.4 8.8 5.6 59 3.7 WNW 19 28 10 15 1015.8 - 0.0
27/09:00am 13.1 8.3 5.8 61 3.4 WNW 20 30 11 16 1015.7 1015.8 0.0
27/08:30am 12.8 9.7 7.3 69 2.7 WNW 13 20 7 11 1015.7 - 0.0
27/08:00am 10.6 7.9 7.5 81 1.5 NW 11 15 6 8 1015.6 - 0.0
27/07:30am 9.6 7.2 7.0 84 1.2 SW 9 13 5 7 1015.4 - 0.0
27/07:00am 8.8 5.8 6.1 83 1.2 WNW 11 17 6 9 1015.3 - 0.0
27/06:30am 7.0 2.6 4.5 84 1.1 NW 17 20 9 11 1014.7 - 0.0
27/06:00am 5.4 0.7 2.9 84 1.0 NW 17 20 9 11 1014.6 1014.7 0.0
27/05:30am 5.4 0.7 2.9 84 1.0 NW 17 20 9 11 1014.1 - 0.0
27/05:00am 5.9 1.6 3.1 82 1.2 NW 15 17 8 9 1014.0 - 0.0
27/04:30am 6.9 2.6 3.5 79 1.4 NW 15 17 8 9 1013.7 - 0.0
27/04:00am 7.0 3.1 3.4 78 1.5 WNW 13 15 7 8 1013.5 - 0.0
27/03:30am 7.0 3.6 3.8 80 1.4 WNW 11 13 6 7 1013.7 - 0.0
27/03:00am 7.1 3.4 4.2 82 1.3 WNW 13 17 7 9 1013.6 1013.6 0.0
27/02:30am 7.2 3.8 4.2 81 1.3 WNW 11 13 6 7 1013.5 - 0.0
27/02:00am 7.8 4.1 4.7 81 1.4 W 13 17 7 9 1013.8 - 0.0
27/01:30am 8.0 4.4 5.1 82 1.3 W 13 17 7 9 1013.8 - 0.0
27/01:00am 7.6 3.9 4.7 82 1.3 W 13 17 7 9 1014.0 - 0.0
27/12:30am 7.0 4.6 4.1 82 1.3 WSW 6 7 3 4 1014.2 - 0.0
27/12:00am 7.5 4.9 4.1 79 1.5 WSW 7 9 4 5 1014.4 1014.5 0.0
 
Date/Time
CST
Temp
°C
App
Temp
°C
Dew
Point
°C
Rel
Hum
%
Delta-T
°C
Wind Press
QNH
hPa
Press
MSL
hPa
Rain since
9am
mm
Dir  Spd
km/h
Gust
km/h
Spd
kts
Gust
kts
26/11:30pm 7.6 3.9 4.6 81 1.3 W 13 15 7 8 1014.4 - 0.0
26/11:00pm 6.0 4.5 2.8 80 1.3 CALM 0 0 0 0 1014.5 - 0.0
26/10:30pm 7.1 3.6 3.5 78 1.5 WNW 11 13 6 7 1014.3 - 0.0
26/10:00pm 8.0 5.0 4.2 77 1.7 WNW 9 11 5 6 1014.2 - 0.0
26/09:30pm 8.7 5.4 4.7 76 1.8 W 11 13 6 7 1014.3 - 0.0
26/09:00pm 9.7 5.7 5.1 73 2.1 W 15 19 8 10 1013.9 1013.9 0.0
26/08:30pm 10.2 5.9 5.4 72 2.2 W 17 26 9 14 1013.9 - 0.0
26/08:00pm 10.5 5.9 5.5 71 2.3 W 19 28 10 15 1013.3 - 0.0
26/07:30pm 10.6 5.4 5.6 71 2.3 W 22 33 12 18 1013.0 - 0.0
26/07:00pm 11.1 6.3 5.6 69 2.5 W 20 30 11 16 1012.6 - 0.0
26/06:30pm 11.3 5.3 5.4 67 2.7 W 26 39 14 21 1012.2 - 0.0
26/06:00pm 11.7 5.6 4.7 62 3.2 W 26 37 14 20 1012.2 1012.2 0.0
26/05:30pm 12.7 6.1 4.4 57 3.8 W 28 44 15 24 1011.7 - 0.0
26/05:03pm 13.2 6.6 4.4 55 4.0 W 28 46 15 25 1011.6 - 0.0
26/05:00pm 13.3 7.3 5.5 59 3.7 W 26 39 14 21 1011.5 - 0.0
26/04:30pm 13.9 6.4 4.2 52 4.5 W 33 50 18 27 1010.9 - 0.0
26/04:00pm 13.9 6.5 3.9 51 4.6 W 32 52 17 28 1010.9 - 0.0
26/03:59pm 14.1 6.7 4.1 51 4.6 W 32 52 17 28 1010.9 - 0.0
26/03:30pm 14.5 7.1 3.9 49 4.9 W 32 44 17 24 1010.7 - 0.0
26/03:16pm 14.7 7.4 4.7 51 4.7 W 32 50 17 27 1010.7 - 0.0
26/03:00pm 14.3 6.9 4.9 53 4.4 W 33 46 18 25 1010.7 1010.7 0.0
26/02:32pm 14.5 7.8 5.6 55 4.2 W 30 48 16 26 1010.9 - 0.0
26/02:30pm 14.4 7.2 5.0 53 4.4 W 32 48 17 26 1010.8 - 0.0
26/02:26pm 14.5 7.8 5.8 56 4.2 W 30 48 16 26 1010.9 - 0.0
26/02:00pm 15.2 9.5 6.7 57 4.2 W 26 44 14 24 1010.9 - 0.0
26/01:30pm 14.7 8.5 6.0 56 4.2 W 28 44 15 24 1010.9 - 0.0
26/01:00pm 14.5 7.4 5.3 54 4.3 W 32 43 17 23 1010.9 - 0.0
26/12:30pm 15.2 9.2 7.2 59 4.0 W 28 37 15 20 1010.8 - 0.0
26/12:00pm 14.5 9.8 9.1 70 2.8 WSW 24 35 13 19 1010.9 1010.9 0.0
26/11:30am 16.4 11.2 8.9 61 3.9 WNW 26 35 14 19 1011.1 - 0.0
26/11:00am 15.3 9.1 6.3 55 4.4 WNW 28 39 15 21 1011.3 - 0.0
26/10:30am 15.1 9.4 2.6 43 5.6 WNW 22 37 12 20 1011.5 - 0.0
26/10:09am 15.1 8.1 2.0 41 5.8 NW 28 50 15 27 1011.4 - 0.0
26/10:00am 15.8 10.2 3.3 43 5.7 WNW 22 32 12 17 1011.1 - 0.0
26/09:30am 15.8 11.0 4.5 47 5.3 WNW 19 41 10 22 1011.3 - 0.0
26/09:00am 15.6 10.7 4.0 46 5.4 NW 19 28 10 15 1011.3 1011.3 0.0
26/08:30am 14.4 11.2 6.7 60 3.7 NW 13 20 7 11 1011.3 - 0.0
26/08:00am 13.1 10.8 7.3 68 2.8 NNE 9 13 5 7 1011.3 - 0.0
26/07:30am 10.3 7.6 5.7 73 2.1 N 9 13 5 7 1011.1 - 0.0
26/07:00am 8.5 5.6 4.9 78 1.6 N 9 11 5 6 1011.3 - 0.0
26/06:30am 7.1 3.2 3.5 78 1.5 N 13 17 7 9 1011.5 - 0.0
26/06:00am 6.9 2.8 4.2 83 1.2 N 15 19 8 10 1011.5 1011.5 0.0
26/05:30am 5.2 2.0 2.9 85 0.9 N 9 11 5 6 1011.4 - 0.0
26/05:00am 5.8 2.6 3.3 84 1.0 N 9 11 5 6 1011.4 - 0.0
26/04:30am 6.1 2.3 3.9 86 0.9 NNW 13 15 7 8 1011.6 - 0.0
26/04:00am 5.9 2.2 4.2 89 0.7 NNW 13 15 7 8 1011.4 - 0.0
26/03:30am 6.0 3.0 4.3 89 0.7 NNW 9 13 5 7 1011.6 - 0.0
26/03:00am 6.2 2.9 4.4 88 0.8 NNW 11 13 6 7 1012.6 1012.6 0.0
26/02:30am 6.5 3.2 4.5 87 0.9 NNW 11 13 6 7 1013.1 - 0.0
26/02:00am 6.6 3.3 4.6 87 0.9 NW 11 15 6 8 1013.5 - 0.0
26/01:30am 7.5 4.3 5.1 85 1.1 NNW 11 13 6 7 1014.0 - 0.0
26/01:00am 7.9 4.5 5.7 86 1.0 NNW 13 17 7 9 1014.3 - 0.0
26/12:30am 7.1 3.9 5.1 87 0.9 NNW 11 13 6 7 1014.5 - 0.0
26/12:00am 6.8 3.1 4.6 86 1.0 NNW 13 15 7 8 1014.7 1014.8 0.0
 
Date/Time
CST
Temp
°C
App
Temp
°C
Dew
Point
°C
Rel
Hum
%
Delta-T
°C
Wind Press
QNH
hPa
Press
MSL
hPa
Rain since
9am
mm
Dir  Spd
km/h
Gust
km/h
Spd
kts
Gust
kts
25/11:30pm 6.8 3.1 4.6 86 1.0 NW 13 15 7 8 1014.8 - 0.0
25/11:00pm 7.6 4.4 5.1 84 1.1 NNW 11 15 6 8 1015.0 - 0.0
25/10:30pm 8.6 5.6 5.9 83 1.2 NW 11 13 6 7 1015.2 - 0.0
25/10:00pm 8.4 5.4 6.0 85 1.1 NW 11 13 6 7 1015.3 - 0.0
25/09:30pm 7.6 4.0 5.2 85 1.1 NW 13 17 7 9 1015.1 - 0.0
25/09:00pm 7.6 4.0 5.2 85 1.1 NW 13 15 7 8 1015.0 1015.1 0.0
25/08:30pm 7.8 4.3 5.3 84 1.1 NW 13 17 7 9 1014.9 - 0.0
25/08:00pm 8.4 5.2 5.2 80 1.4 WNW 11 13 6 7 1014.8 - 0.0

Other Formats:

Comma delimited format used in spreadsheet applications
http://www.bom.gov.au/fwo/IDS60801/IDS60801.94814.axf

JavaScript Object Notation format (JSON) in row-major order
http://www.bom.gov.au/fwo/IDS60801/IDS60801.94814.json